sensor_id;sensor_type;location;lat;lon;timestamp;temperature;humidity
30174;DHT22;16985;50.814;8.530;2023-04-08T00:01:33;4.30;99.90
30174;DHT22;16985;50.814;8.530;2023-04-08T00:03:59;5.60;99.90
30174;DHT22;16985;50.814;8.530;2023-04-08T00:06:25;4.20;99.90
30174;DHT22;16985;50.814;8.530;2023-04-08T00:08:51;4.20;99.90
30174;DHT22;16985;50.814;8.530;2023-04-08T00:11:17;4.20;99.90
30174;DHT22;16985;50.814;8.530;2023-04-08T00:13:43;4.10;99.90
30174;DHT22;16985;50.814;8.530;2023-04-08T00:16:09;4.10;99.90
30174;DHT22;16985;50.814;8.530;2023-04-08T00:18:34;4.10;99.90
30174;DHT22;16985;50.814;8.530;2023-04-08T00:21:02;3.90;99.90
30174;DHT22;16985;50.814;8.530;2023-04-08T00:23:28;4.00;99.90
30174;DHT22;16985;50.814;8.530;2023-04-08T00:25:54;3.90;99.90
30174;DHT22;16985;50.814;8.530;2023-04-08T00:28:20;3.90;99.90
30174;DHT22;16985;50.814;8.530;2023-04-08T00:30:46;5.40;99.90
30174;DHT22;16985;50.814;8.530;2023-04-08T00:33:11;3.90;99.90
30174;DHT22;16985;50.814;8.530;2023-04-08T00:35:37;3.80;99.90
30174;DHT22;16985;50.814;8.530;2023-04-08T00:38:03;3.80;99.90
30174;DHT22;16985;50.814;8.530;2023-04-08T00:40:33;3.80;99.90
30174;DHT22;16985;50.814;8.530;2023-04-08T00:42:59;3.70;99.90
30174;DHT22;16985;50.814;8.530;2023-04-08T00:45:24;3.70;99.90
30174;DHT22;16985;50.814;8.530;2023-04-08T00:47:50;3.70;99.90
30174;DHT22;16985;50.814;8.530;2023-04-08T00:50:17;3.60;99.90
30174;DHT22;16985;50.814;8.530;2023-04-08T00:52:44;3.70;99.90
30174;DHT22;16985;50.814;8.530;2023-04-08T00:55:10;3.60;99.90
30174;DHT22;16985;50.814;8.530;2023-04-08T00:57:36;3.60;99.90
30174;DHT22;16985;50.814;8.530;2023-04-08T01:00:03;3.60;99.90
30174;DHT22;16985;50.814;8.530;2023-04-08T01:02:38;3.60;99.90
30174;DHT22;16985;50.814;8.530;2023-04-08T01:05:27;3.50;99.90
30174;DHT22;16985;50.814;8.530;2023-04-08T01:07:58;5.80;99.90
30174;DHT22;16985;50.814;8.530;2023-04-08T01:10:32;3.50;99.90
30174;DHT22;16985;50.814;8.530;2023-04-08T01:13:03;3.50;99.90
30174;DHT22;16985;50.814;8.530;2023-04-08T01:15:34;3.40;99.90
30174;DHT22;16985;50.814;8.530;2023-04-08T01:18:05;3.40;99.90
30174;DHT22;16985;50.814;8.530;2023-04-08T01:20:34;3.40;99.90
30174;DHT22;16985;50.814;8.530;2023-04-08T01:25:37;3.30;99.90
30174;DHT22;16985;50.814;8.530;2023-04-08T01:28:12;3.30;99.90
30174;DHT22;16985;50.814;8.530;2023-04-08T01:30:41;3.30;99.90
30174;DHT22;16985;50.814;8.530;2023-04-08T01:33:09;4.60;99.90
30174;DHT22;16985;50.814;8.530;2023-04-08T01:35:37;3.60;99.90
30174;DHT22;16985;50.814;8.530;2023-04-08T01:38:04;3.20;99.90
30174;DHT22;16985;50.814;8.530;2023-04-08T01:40:33;3.20;99.90
30174;DHT22;16985;50.814;8.530;2023-04-08T01:43:03;3.20;99.90
30174;DHT22;16985;50.814;8.530;2023-04-08T01:45:30;3.10;99.90
30174;DHT22;16985;50.814;8.530;2023-04-08T01:47:57;3.10;99.90
30174;DHT22;16985;50.814;8.530;2023-04-08T01:50:26;3.10;99.90
30174;DHT22;16985;50.814;8.530;2023-04-08T01:52:53;4.50;99.90
30174;DHT22;16985;50.814;8.530;2023-04-08T01:55:20;3.10;99.90
30174;DHT22;16985;50.814;8.530;2023-04-08T01:57:52;3.00;99.90
30174;DHT22;16985;50.814;8.530;2023-04-08T02:00:21;3.00;99.90
30174;DHT22;16985;50.814;8.530;2023-04-08T02:02:50;3.00;99.90
30174;DHT22;16985;50.814;8.530;2023-04-08T02:05:18;2.90;99.90
30174;DHT22;16985;50.814;8.530;2023-04-08T02:07:44;2.90;99.90
30174;DHT22;16985;50.814;8.530;2023-04-08T02:10:12;2.90;99.90
30174;DHT22;16985;50.814;8.530;2023-04-08T02:12:38;2.90;99.90
30174;DHT22;16985;50.814;8.530;2023-04-08T02:15:08;2.90;99.90
30174;DHT22;16985;50.814;8.530;2023-04-08T02:17:57;4.60;99.90
30174;DHT22;16985;50.814;8.530;2023-04-08T02:20:42;2.80;99.90
30174;DHT22;16985;50.814;8.530;2023-04-08T02:23:14;2.80;99.90
30174;DHT22;16985;50.814;8.530;2023-04-08T02:25:44;2.80;99.90
30174;DHT22;16985;50.814;8.530;2023-04-08T02:28:13;2.80;99.90
30174;DHT22;16985;50.814;8.530;2023-04-08T02:30:48;2.80;99.90
30174;DHT22;16985;50.814;8.530;2023-04-08T02:33:19;2.80;99.90
30174;DHT22;16985;50.814;8.530;2023-04-08T02:35:48;2.80;99.90
30174;DHT22;16985;50.814;8.530;2023-04-08T02:38:15;2.70;99.90
30174;DHT22;16985;50.814;8.530;2023-04-08T02:40:42;2.70;99.90
30174;DHT22;16985;50.814;8.530;2023-04-08T02:43:07;2.70;99.90
30174;DHT22;16985;50.814;8.530;2023-04-08T02:45:43;2.70;99.90
30174;DHT22;16985;50.814;8.530;2023-04-08T02:48:09;2.60;99.90
30174;DHT22;16985;50.814;8.530;2023-04-08T02:50:36;2.70;99.90
30174;DHT22;16985;50.814;8.530;2023-04-08T02:53:02;2.60;99.90
30174;DHT22;16985;50.814;8.530;2023-04-08T02:55:30;2.60;99.90
30174;DHT22;16985;50.814;8.530;2023-04-08T02:57:56;2.60;99.90
30174;DHT22;16985;50.814;8.530;2023-04-08T03:00:21;2.60;99.90
30174;DHT22;16985;50.814;8.530;2023-04-08T03:02:47;2.50;99.90
30174;DHT22;16985;50.814;8.530;2023-04-08T03:05:13;3.70;99.90
30174;DHT22;16985;50.814;8.530;2023-04-08T03:07:40;2.50;99.90
30174;DHT22;16985;50.814;8.530;2023-04-08T03:10:06;2.50;99.90
30174;DHT22;16985;50.814;8.530;2023-04-08T03:12:33;2.50;99.90
30174;DHT22;16985;50.814;8.530;2023-04-08T03:15:00;2.40;99.90
30174;DHT22;16985;50.814;8.530;2023-04-08T03:17:26;2.50;99.90
30174;DHT22;16985;50.814;8.530;2023-04-08T03:19:51;2.70;99.90
30174;DHT22;16985;50.814;8.530;2023-04-08T03:22:18;2.30;99.90
30174;DHT22;16985;50.814;8.530;2023-04-08T03:24:43;2.40;99.90
30174;DHT22;16985;50.814;8.530;2023-04-08T03:27:09;2.50;99.90
30174;DHT22;16985;50.814;8.530;2023-04-08T03:29:37;2.40;99.90
30174;DHT22;16985;50.814;8.530;2023-04-08T03:32:02;2.40;99.90
30174;DHT22;16985;50.814;8.530;2023-04-08T03:34:28;2.50;99.90
30174;DHT22;16985;50.814;8.530;2023-04-08T03:36:54;2.30;99.90
30174;DHT22;16985;50.814;8.530;2023-04-08T03:39:20;2.40;99.90
30174;DHT22;16985;50.814;8.530;2023-04-08T03:41:46;2.40;99.90
30174;DHT22;16985;50.814;8.530;2023-04-08T03:44:12;2.40;99.90
30174;DHT22;16985;50.814;8.530;2023-04-08T03:46:37;2.30;99.90
30174;DHT22;16985;50.814;8.530;2023-04-08T03:49:03;2.30;99.90
30174;DHT22;16985;50.814;8.530;2023-04-08T03:51:29;2.30;99.90
30174;DHT22;16985;50.814;8.530;2023-04-08T03:53:55;2.20;99.90
30174;DHT22;16985;50.814;8.530;2023-04-08T03:56:20;2.20;99.90
30174;DHT22;16985;50.814;8.530;2023-04-08T03:58:46;2.20;99.90
30174;DHT22;16985;50.814;8.530;2023-04-08T04:01:12;2.20;99.90
30174;DHT22;16985;50.814;8.530;2023-04-08T04:03:38;2.20;99.90
30174;DHT22;16985;50.814;8.530;2023-04-08T04:06:04;4.40;99.90
30174;DHT22;16985;50.814;8.530;2023-04-08T04:08:29;2.20;99.90
30174;DHT22;16985;50.814;8.530;2023-04-08T04:10:55;2.20;99.90
30174;DHT22;16985;50.814;8.530;2023-04-08T04:13:23;4.20;99.90
30174;DHT22;16985;50.814;8.530;2023-04-08T04:15:49;2.20;99.90
30174;DHT22;16985;50.814;8.530;2023-04-08T04:18:15;2.20;99.90
30174;DHT22;16985;50.814;8.530;2023-04-08T04:20:41;2.10;99.90
30174;DHT22;16985;50.814;8.530;2023-04-08T04:23:08;2.20;99.90
30174;DHT22;16985;50.814;8.530;2023-04-08T04:25:34;2.20;99.90
30174;DHT22;16985;50.814;8.530;2023-04-08T04:27:59;2.10;99.90
30174;DHT22;16985;50.814;8.530;2023-04-08T04:30:27;2.20;99.90
30174;DHT22;16985;50.814;8.530;2023-04-08T04:32:53;2.20;99.90
30174;DHT22;16985;50.814;8.530;2023-04-08T04:35:18;2.20;99.90
30174;DHT22;16985;50.814;8.530;2023-04-08T04:37:44;2.20;99.90
30174;DHT22;16985;50.814;8.530;2023-04-08T04:40:10;2.20;99.90
30174;DHT22;16985;50.814;8.530;2023-04-08T04:42:36;2.20;99.90
30174;DHT22;16985;50.814;8.530;2023-04-08T04:45:02;2.20;99.90
30174;DHT22;16985;50.814;8.530;2023-04-08T04:47:28;2.30;99.90
30174;DHT22;16985;50.814;8.530;2023-04-08T04:49:56;2.20;99.90
30174;DHT22;16985;50.814;8.530;2023-04-08T04:52:22;2.20;99.90
30174;DHT22;16985;50.814;8.530;2023-04-08T04:54:48;2.20;99.90
30174;DHT22;16985;50.814;8.530;2023-04-08T04:57:14;2.20;99.90
30174;DHT22;16985;50.814;8.530;2023-04-08T04:59:39;2.20;99.90
30174;DHT22;16985;50.814;8.530;2023-04-08T05:02:05;2.10;99.90
30174;DHT22;16985;50.814;8.530;2023-04-08T05:04:31;2.10;99.90
30174;DHT22;16985;50.814;8.530;2023-04-08T05:06:58;2.00;99.90
30174;DHT22;16985;50.814;8.530;2023-04-08T05:09:25;3.10;99.90
30174;DHT22;16985;50.814;8.530;2023-04-08T05:11:50;2.10;99.90
30174;DHT22;16985;50.814;8.530;2023-04-08T05:14:16;2.10;99.90
30174;DHT22;16985;50.814;8.530;2023-04-08T05:16:42;2.10;99.90
30174;DHT22;16985;50.814;8.530;2023-04-08T05:19:08;2.00;99.90
30174;DHT22;16985;50.814;8.530;2023-04-08T05:21:34;2.10;99.90
30174;DHT22;16985;50.814;8.530;2023-04-08T05:24:00;2.10;99.90
30174;DHT22;16985;50.814;8.530;2023-04-08T05:26:25;2.20;99.90
30174;DHT22;16985;50.814;8.530;2023-04-08T05:28:51;2.20;99.90
30174;DHT22;16985;50.814;8.530;2023-04-08T05:31:18;2.20;99.90
30174;DHT22;16985;50.814;8.530;2023-04-08T05:33:44;2.10;99.90
30174;DHT22;16985;50.814;8.530;2023-04-08T05:36:10;2.20;99.90
30174;DHT22;16985;50.814;8.530;2023-04-08T05:38:37;2.10;99.90
30174;DHT22;16985;50.814;8.530;2023-04-08T05:41:03;2.20;99.90
30174;DHT22;16985;50.814;8.530;2023-04-08T05:43:32;2.20;99.90
30174;DHT22;16985;50.814;8.530;2023-04-08T05:45:58;2.20;99.90
30174;DHT22;16985;50.814;8.530;2023-04-08T05:48:23;2.20;99.90
30174;DHT22;16985;50.814;8.530;2023-04-08T05:50:49;2.20;99.90
30174;DHT22;16985;50.814;8.530;2023-04-08T05:53:15;2.30;99.90
30174;DHT22;16985;50.814;8.530;2023-04-08T05:55:41;3.80;99.90
30174;DHT22;16985;50.814;8.530;2023-04-08T05:58:07;2.20;99.90
30174;DHT22;16985;50.814;8.530;2023-04-08T06:00:33;2.30;99.90
30174;DHT22;16985;50.814;8.530;2023-04-08T06:02:58;2.30;99.90
30174;DHT22;16985;50.814;8.530;2023-04-08T06:05:24;2.30;99.90
30174;DHT22;16985;50.814;8.530;2023-04-08T06:07:50;2.30;99.90
30174;DHT22;16985;50.814;8.530;2023-04-08T06:10:16;2.40;99.90
30174;DHT22;16985;50.814;8.530;2023-04-08T06:12:42;2.40;99.90
30174;DHT22;16985;50.814;8.530;2023-04-08T06:15:08;2.30;99.90
30174;DHT22;16985;50.814;8.530;2023-04-08T06:17:38;2.40;99.90
30174;DHT22;16985;50.814;8.530;2023-04-08T06:20:07;2.40;99.90
30174;DHT22;16985;50.814;8.530;2023-04-08T06:22:36;2.40;99.90
30174;DHT22;16985;50.814;8.530;2023-04-08T06:25:02;2.40;99.90
30174;DHT22;16985;50.814;8.530;2023-04-08T06:27:29;2.40;99.90
30174;DHT22;16985;50.814;8.530;2023-04-08T06:29:55;3.00;99.90
30174;DHT22;16985;50.814;8.530;2023-04-08T06:32:21;2.40;99.90
30174;DHT22;16985;50.814;8.530;2023-04-08T06:34:47;2.50;99.90
30174;DHT22;16985;50.814;8.530;2023-04-08T06:37:13;2.60;99.90
30174;DHT22;16985;50.814;8.530;2023-04-08T06:39:39;2.40;99.90
30174;DHT22;16985;50.814;8.530;2023-04-08T06:42:05;2.50;99.90
30174;DHT22;16985;50.814;8.530;2023-04-08T06:44:51;2.50;99.90
30174;DHT22;16985;50.814;8.530;2023-04-08T06:47:17;2.40;99.90
30174;DHT22;16985;50.814;8.530;2023-04-08T06:49:43;2.50;99.90
30174;DHT22;16985;50.814;8.530;2023-04-08T06:52:08;3.10;99.90
30174;DHT22;16985;50.814;8.530;2023-04-08T06:54:35;2.50;99.90
30174;DHT22;16985;50.814;8.530;2023-04-08T06:57:03;2.50;99.90
30174;DHT22;16985;50.814;8.530;2023-04-08T06:59:29;2.60;99.90
30174;DHT22;16985;50.814;8.530;2023-04-08T07:01:55;2.50;99.90
30174;DHT22;16985;50.814;8.530;2023-04-08T07:04:20;2.60;99.90
30174;DHT22;16985;50.814;8.530;2023-04-08T07:06:46;2.60;99.90
30174;DHT22;16985;50.814;8.530;2023-04-08T07:09:12;2.50;99.90
30174;DHT22;16985;50.814;8.530;2023-04-08T07:11:38;2.60;99.90
30174;DHT22;16985;50.814;8.530;2023-04-08T07:14:04;2.60;99.90
30174;DHT22;16985;50.814;8.530;2023-04-08T07:16:29;2.60;99.90
30174;DHT22;16985;50.814;8.530;2023-04-08T07:18:55;2.60;99.90
30174;DHT22;16985;50.814;8.530;2023-04-08T07:21:22;2.50;99.90
30174;DHT22;16985;50.814;8.530;2023-04-08T07:23:48;2.60;99.90
30174;DHT22;16985;50.814;8.530;2023-04-08T07:26:14;2.50;99.90
30174;DHT22;16985;50.814;8.530;2023-04-08T07:28:39;2.60;99.90
30174;DHT22;16985;50.814;8.530;2023-04-08T07:31:10;2.70;99.90
30174;DHT22;16985;50.814;8.530;2023-04-08T07:33:36;2.70;99.90
30174;DHT22;16985;50.814;8.530;2023-04-08T07:36:02;2.70;99.90
30174;DHT22;16985;50.814;8.530;2023-04-08T07:38:28;2.80;99.90
30174;DHT22;16985;50.814;8.530;2023-04-08T07:40:54;2.90;99.90
30174;DHT22;16985;50.814;8.530;2023-04-08T07:43:19;2.80;99.90
30174;DHT22;16985;50.814;8.530;2023-04-08T07:45:46;3.00;99.90
30174;DHT22;16985;50.814;8.530;2023-04-08T07:48:12;3.00;99.90
30174;DHT22;16985;50.814;8.530;2023-04-08T07:50:37;3.10;99.90
30174;DHT22;16985;50.814;8.530;2023-04-08T07:53:03;3.20;99.90
30174;DHT22;16985;50.814;8.530;2023-04-08T07:55:33;3.30;99.90
30174;DHT22;16985;50.814;8.530;2023-04-08T07:57:59;3.30;99.90
30174;DHT22;16985;50.814;8.530;2023-04-08T08:00:26;3.30;99.90
30174;DHT22;16985;50.814;8.530;2023-04-08T08:02:54;5.10;99.90
30174;DHT22;16985;50.814;8.530;2023-04-08T08:05:20;3.40;99.90
30174;DHT22;16985;50.814;8.530;2023-04-08T08:07:46;3.40;99.90
30174;DHT22;16985;50.814;8.530;2023-04-08T08:10:12;3.40;99.90
30174;DHT22;16985;50.814;8.530;2023-04-08T08:12:38;3.50;99.90
30174;DHT22;16985;50.814;8.530;2023-04-08T08:15:04;3.60;99.90
30174;DHT22;16985;50.814;8.530;2023-04-08T08:17:30;3.60;99.90
30174;DHT22;16985;50.814;8.530;2023-04-08T08:19:58;6.20;99.90
30174;DHT22;16985;50.814;8.530;2023-04-08T08:22:25;3.60;99.90
30174;DHT22;16985;50.814;8.530;2023-04-08T08:24:55;5.00;99.90
30174;DHT22;16985;50.814;8.530;2023-04-08T08:27:22;3.70;99.90
30174;DHT22;16985;50.814;8.530;2023-04-08T08:29:48;5.00;99.90
30174;DHT22;16985;50.814;8.530;2023-04-08T08:32:14;3.90;99.90
30174;DHT22;16985;50.814;8.530;2023-04-08T08:34:40;5.20;99.90
30174;DHT22;16985;50.814;8.530;2023-04-08T08:37:05;3.90;99.90
30174;DHT22;16985;50.814;8.530;2023-04-08T08:39:31;4.00;99.90
30174;DHT22;16985;50.814;8.530;2023-04-08T08:41:58;4.10;99.90
30174;DHT22;16985;50.814;8.530;2023-04-08T08:44:23;3.90;99.90
30174;DHT22;16985;50.814;8.530;2023-04-08T08:46:50;4.20;99.90
30174;DHT22;16985;50.814;8.530;2023-04-08T08:49:16;6.00;99.90
30174;DHT22;16985;50.814;8.530;2023-04-08T08:51:44;4.40;99.90
30174;DHT22;16985;50.814;8.530;2023-04-08T08:54:14;4.40;99.90
30174;DHT22;16985;50.814;8.530;2023-04-08T08:56:40;4.50;99.90
30174;DHT22;16985;50.814;8.530;2023-04-08T08:59:08;4.70;99.90
30174;DHT22;16985;50.814;8.530;2023-04-08T09:01:38;4.60;99.90
30174;DHT22;16985;50.814;8.530;2023-04-08T09:04:18;4.60;99.90
30174;DHT22;16985;50.814;8.530;2023-04-08T09:06:48;4.80;99.90
30174;DHT22;16985;50.814;8.530;2023-04-08T09:09:16;4.80;99.90
30174;DHT22;16985;50.814;8.530;2023-04-08T09:11:46;4.80;99.90
30174;DHT22;16985;50.814;8.530;2023-04-08T09:14:23;5.70;99.90
30174;DHT22;16985;50.814;8.530;2023-04-08T09:17:00;5.00;99.90
30174;DHT22;16985;50.814;8.530;2023-04-08T09:19:27;6.50;99.90
30174;DHT22;16985;50.814;8.530;2023-04-08T09:22:06;7.20;99.90
30174;DHT22;16985;50.814;8.530;2023-04-08T09:24:34;5.20;99.90
30174;DHT22;16985;50.814;8.530;2023-04-08T09:27:02;5.20;99.90
30174;DHT22;16985;50.814;8.530;2023-04-08T09:29:28;5.30;99.90
30174;DHT22;16985;50.814;8.530;2023-04-08T09:31:56;5.40;99.90
30174;DHT22;16985;50.814;8.530;2023-04-08T09:34:23;5.50;99.90
30174;DHT22;16985;50.814;8.530;2023-04-08T09:36:51;6.90;99.90
30174;DHT22;16985;50.814;8.530;2023-04-08T09:39:17;5.60;99.90
30174;DHT22;16985;50.814;8.530;2023-04-08T09:41:44;6.40;99.90
30174;DHT22;16985;50.814;8.530;2023-04-08T09:44:14;5.70;99.90
30174;DHT22;16985;50.814;8.530;2023-04-08T09:46:53;5.70;99.90
30174;DHT22;16985;50.814;8.530;2023-04-08T09:49:33;5.80;99.90
30174;DHT22;16985;50.814;8.530;2023-04-08T09:52:33;5.80;99.90
30174;DHT22;16985;50.814;8.530;2023-04-08T09:55:11;5.80;99.90
30174;DHT22;16985;50.814;8.530;2023-04-08T09:57:43;6.70;99.90
30174;DHT22;16985;50.814;8.530;2023-04-08T10:00:18;5.90;99.90
30174;DHT22;16985;50.814;8.530;2023-04-08T10:05:57;6.00;99.90
30174;DHT22;16985;50.814;8.530;2023-04-08T10:08:26;6.00;99.90
30174;DHT22;16985;50.814;8.530;2023-04-08T10:10:53;6.00;99.90
30174;DHT22;16985;50.814;8.530;2023-04-08T10:13:20;6.10;99.90
30174;DHT22;16985;50.814;8.530;2023-04-08T10:15:47;6.10;99.90
30174;DHT22;16985;50.814;8.530;2023-04-08T10:23:06;6.30;99.90
30174;DHT22;16985;50.814;8.530;2023-04-08T10:25:34;6.30;99.90
30174;DHT22;16985;50.814;8.530;2023-04-08T10:30:48;6.50;99.90
30174;DHT22;16985;50.814;8.530;2023-04-08T10:36:10;6.60;99.90
30174;DHT22;16985;50.814;8.530;2023-04-08T10:38:37;6.70;99.90
30174;DHT22;16985;50.814;8.530;2023-04-08T10:41:04;6.70;99.90
30174;DHT22;16985;50.814;8.530;2023-04-08T10:43:33;6.80;99.90
30174;DHT22;16985;50.814;8.530;2023-04-08T10:46:00;6.80;99.90
30174;DHT22;16985;50.814;8.530;2023-04-08T10:48:26;6.90;99.90
30174;DHT22;16985;50.814;8.530;2023-04-08T10:50:59;6.90;99.90
30174;DHT22;16985;50.814;8.530;2023-04-08T10:53:36;7.00;99.90
30174;DHT22;16985;50.814;8.530;2023-04-08T10:56:11;7.10;99.90
30174;DHT22;16985;50.814;8.530;2023-04-08T10:58:50;7.20;99.90
30174;DHT22;16985;50.814;8.530;2023-04-08T11:01:18;7.30;99.90
30174;DHT22;16985;50.814;8.530;2023-04-08T11:03:44;7.40;99.90
30174;DHT22;16985;50.814;8.530;2023-04-08T11:06:10;7.50;99.90
30174;DHT22;16985;50.814;8.530;2023-04-08T11:08:36;7.60;99.90
30174;DHT22;16985;50.814;8.530;2023-04-08T11:11:04;7.70;99.90
30174;DHT22;16985;50.814;8.530;2023-04-08T11:13:35;7.70;99.90
30174;DHT22;16985;50.814;8.530;2023-04-08T11:16:02;7.80;99.90
30174;DHT22;16985;50.814;8.530;2023-04-08T11:18:30;7.80;99.90
30174;DHT22;16985;50.814;8.530;2023-04-08T11:20:56;7.80;99.90
30174;DHT22;16985;50.814;8.530;2023-04-08T11:23:25;7.70;99.90
30174;DHT22;16985;50.814;8.530;2023-04-08T11:25:51;7.90;99.90
30174;DHT22;16985;50.814;8.530;2023-04-08T11:28:18;7.90;99.90
30174;DHT22;16985;50.814;8.530;2023-04-08T11:30:44;8.00;99.90
30174;DHT22;16985;50.814;8.530;2023-04-08T11:33:12;8.00;99.90
30174;DHT22;16985;50.814;8.530;2023-04-08T11:35:42;8.30;99.90
30174;DHT22;16985;50.814;8.530;2023-04-08T11:38:09;8.10;99.90
30174;DHT22;16985;50.814;8.530;2023-04-08T11:40:36;8.10;99.90
30174;DHT22;16985;50.814;8.530;2023-04-08T11:43:09;8.20;99.90
30174;DHT22;16985;50.814;8.530;2023-04-08T11:45:40;8.20;99.90
30174;DHT22;16985;50.814;8.530;2023-04-08T11:48:10;8.40;99.90
30174;DHT22;16985;50.814;8.530;2023-04-08T11:50:37;8.50;99.90
30174;DHT22;16985;50.814;8.530;2023-04-08T11:53:02;8.80;99.90
30174;DHT22;16985;50.814;8.530;2023-04-08T11:55:32;8.60;99.90
30174;DHT22;16985;50.814;8.530;2023-04-08T11:58:03;8.70;99.90
30174;DHT22;16985;50.814;8.530;2023-04-08T12:00:30;8.70;99.90
30174;DHT22;16985;50.814;8.530;2023-04-08T12:02:57;8.80;99.90
30174;DHT22;16985;50.814;8.530;2023-04-08T12:05:23;8.80;99.90
30174;DHT22;16985;50.814;8.530;2023-04-08T12:07:49;10.80;99.90
30174;DHT22;16985;50.814;8.530;2023-04-08T12:10:15;8.80;99.90
30174;DHT22;16985;50.814;8.530;2023-04-08T12:12:41;8.80;99.90
30174;DHT22;16985;50.814;8.530;2023-04-08T12:15:07;10.60;99.90
30174;DHT22;16985;50.814;8.530;2023-04-08T12:17:34;8.80;99.90
30174;DHT22;16985;50.814;8.530;2023-04-08T12:20:00;8.70;99.90
30174;DHT22;16985;50.814;8.530;2023-04-08T12:22:26;8.80;99.90
30174;DHT22;16985;50.814;8.530;2023-04-08T12:24:52;8.90;99.90
30174;DHT22;16985;50.814;8.530;2023-04-08T12:27:18;8.80;99.90
30174;DHT22;16985;50.814;8.530;2023-04-08T12:29:44;9.70;99.90
30174;DHT22;16985;50.814;8.530;2023-04-08T12:32:10;9.00;99.90
30174;DHT22;16985;50.814;8.530;2023-04-08T12:34:36;9.10;99.90
30174;DHT22;16985;50.814;8.530;2023-04-08T12:37:02;9.00;99.90
30174;DHT22;16985;50.814;8.530;2023-04-08T12:39:28;9.20;99.90
30174;DHT22;16985;50.814;8.530;2023-04-08T12:41:54;7.60;99.90
30174;DHT22;16985;50.814;8.530;2023-04-08T12:44:21;9.20;99.90
30174;DHT22;16985;50.814;8.530;2023-04-08T12:46:47;9.20;99.90
30174;DHT22;16985;50.814;8.530;2023-04-08T12:49:13;12.30;99.90
30174;DHT22;16985;50.814;8.530;2023-04-08T12:51:39;10.50;99.90
30174;DHT22;16985;50.814;8.530;2023-04-08T12:54:05;10.50;99.90
30174;DHT22;16985;50.814;8.530;2023-04-08T12:56:31;10.90;99.90
30174;DHT22;16985;50.814;8.530;2023-04-08T12:58:58;11.90;99.90
30174;DHT22;16985;50.814;8.530;2023-04-08T13:06:18;9.40;99.90
30174;DHT22;16985;50.814;8.530;2023-04-08T13:08:44;9.70;99.90
30174;DHT22;16985;50.814;8.530;2023-04-08T13:11:10;9.30;99.90
30174;DHT22;16985;50.814;8.530;2023-04-08T13:13:35;9.30;99.90
30174;DHT22;16985;50.814;8.530;2023-04-08T13:16:02;11.30;99.90
30174;DHT22;16985;50.814;8.530;2023-04-08T13:18:28;9.50;99.90
30174;DHT22;16985;50.814;8.530;2023-04-08T13:20:54;9.20;99.90
30174;DHT22;16985;50.814;8.530;2023-04-08T13:23:20;9.40;99.90
30174;DHT22;16985;50.814;8.530;2023-04-08T13:25:46;9.50;99.90
30174;DHT22;16985;50.814;8.530;2023-04-08T13:28:12;9.50;99.90
30174;DHT22;16985;50.814;8.530;2023-04-08T13:30:38;9.60;99.90
30174;DHT22;16985;50.814;8.530;2023-04-08T13:33:04;9.60;99.90
30174;DHT22;16985;50.814;8.530;2023-04-08T13:35:30;9.40;99.90
30174;DHT22;16985;50.814;8.530;2023-04-08T13:37:56;9.30;99.90
30174;DHT22;16985;50.814;8.530;2023-04-08T13:40:22;9.60;99.90
30174;DHT22;16985;50.814;8.530;2023-04-08T13:42:48;9.60;99.90
30174;DHT22;16985;50.814;8.530;2023-04-08T13:45:14;9.60;99.90
30174;DHT22;16985;50.814;8.530;2023-04-08T13:47:40;9.60;99.90
30174;DHT22;16985;50.814;8.530;2023-04-08T13:50:06;9.50;99.90
30174;DHT22;16985;50.814;8.530;2023-04-08T13:52:33;9.60;99.90
30174;DHT22;16985;50.814;8.530;2023-04-08T13:54:59;11.10;99.90
30174;DHT22;16985;50.814;8.530;2023-04-08T13:57:25;9.40;99.90
30174;DHT22;16985;50.814;8.530;2023-04-08T13:59:51;9.60;99.90
30174;DHT22;16985;50.814;8.530;2023-04-08T14:02:16;9.60;99.90
30174;DHT22;16985;50.814;8.530;2023-04-08T14:04:42;9.60;99.90
30174;DHT22;16985;50.814;8.530;2023-04-08T14:09:37;9.60;99.90
30174;DHT22;16985;50.814;8.530;2023-04-08T14:12:03;11.10;99.90
30174;DHT22;16985;50.814;8.530;2023-04-08T14:14:29;11.60;99.90
30174;DHT22;16985;50.814;8.530;2023-04-08T14:16:55;9.80;99.90
30174;DHT22;16985;50.814;8.530;2023-04-08T14:19:21;9.80;99.90
30174;DHT22;16985;50.814;8.530;2023-04-08T14:21:47;10.40;99.90
30174;DHT22;16985;50.814;8.530;2023-04-08T14:24:13;9.90;99.90
30174;DHT22;16985;50.814;8.530;2023-04-08T14:26:40;10.00;99.90
30174;DHT22;16985;50.814;8.530;2023-04-08T14:29:14;10.10;99.90
30174;DHT22;16985;50.814;8.530;2023-04-08T14:31:41;10.20;99.90
30174;DHT22;16985;50.814;8.530;2023-04-08T14:38:59;10.30;99.90
30174;DHT22;16985;50.814;8.530;2023-04-08T14:41:25;12.40;99.90
30174;DHT22;16985;50.814;8.530;2023-04-08T14:43:52;10.30;99.90
30174;DHT22;16985;50.814;8.530;2023-04-08T14:46:18;10.40;99.90
30174;DHT22;16985;50.814;8.530;2023-04-08T14:48:44;10.40;99.90
30174;DHT22;16985;50.814;8.530;2023-04-08T14:51:13;10.40;99.90
30174;DHT22;16985;50.814;8.530;2023-04-08T14:53:39;10.60;99.90
30174;DHT22;16985;50.814;8.530;2023-04-08T14:56:06;10.40;99.90
30174;DHT22;16985;50.814;8.530;2023-04-08T14:58:33;10.30;99.90
30174;DHT22;16985;50.814;8.530;2023-04-08T15:00:58;10.20;99.90
30174;DHT22;16985;50.814;8.530;2023-04-08T15:03:24;10.30;99.90
30174;DHT22;16985;50.814;8.530;2023-04-08T15:05:56;10.30;99.90
30174;DHT22;16985;50.814;8.530;2023-04-08T15:08:23;10.20;99.90
30174;DHT22;16985;50.814;8.530;2023-04-08T15:10:48;10.20;99.90
30174;DHT22;16985;50.814;8.530;2023-04-08T15:13:14;10.20;99.90
30174;DHT22;16985;50.814;8.530;2023-04-08T15:15:40;10.10;99.90
30174;DHT22;16985;50.814;8.530;2023-04-08T15:18:06;10.10;99.90
30174;DHT22;16985;50.814;8.530;2023-04-08T15:20:32;11.80;99.90
30174;DHT22;16985;50.814;8.530;2023-04-08T15:22:57;10.00;99.90
30174;DHT22;16985;50.814;8.530;2023-04-08T15:25:23;10.00;99.90
30174;DHT22;16985;50.814;8.530;2023-04-08T15:27:52;10.00;99.90
30174;DHT22;16985;50.814;8.530;2023-04-08T15:30:18;9.90;99.90
30174;DHT22;16985;50.814;8.530;2023-04-08T15:32:49;11.50;99.90
30174;DHT22;16985;50.814;8.530;2023-04-08T15:35:16;9.80;99.90
30174;DHT22;16985;50.814;8.530;2023-04-08T15:37:42;9.80;99.90
30174;DHT22;16985;50.814;8.530;2023-04-08T15:40:11;9.80;99.90
30174;DHT22;16985;50.814;8.530;2023-04-08T15:42:37;9.80;99.90
30174;DHT22;16985;50.814;8.530;2023-04-08T15:45:03;9.80;99.90
30174;DHT22;16985;50.814;8.530;2023-04-08T15:47:32;9.70;99.90
30174;DHT22;16985;50.814;8.530;2023-04-08T15:49:59;9.70;99.90
30174;DHT22;16985;50.814;8.530;2023-04-08T15:52:25;9.70;99.90
30174;DHT22;16985;50.814;8.530;2023-04-08T15:54:52;9.70;99.90
30174;DHT22;16985;50.814;8.530;2023-04-08T15:57:18;9.60;99.90
30174;DHT22;16985;50.814;8.530;2023-04-08T15:59:46;9.70;99.90
30174;DHT22;16985;50.814;8.530;2023-04-08T16:02:12;9.60;99.90
30174;DHT22;16985;50.814;8.530;2023-04-08T16:04:37;9.50;99.90
30174;DHT22;16985;50.814;8.530;2023-04-08T16:07:03;9.60;99.90
30174;DHT22;16985;50.814;8.530;2023-04-08T16:09:29;9.70;99.90
30174;DHT22;16985;50.814;8.530;2023-04-08T16:11:55;9.70;99.90
30174;DHT22;16985;50.814;8.530;2023-04-08T16:14:21;9.50;99.90